Abiquiu, New Mexico
Current Conditions -  °F | °C
As of 3:55 AM on Sunday 23 Nov 2014 (Local Time) from KLAM Reporting Station
Clear Clear  
Wind Chill: 30°   Ceiling: Unl
Heat Index: 38°   Visibility: 10mi
Dew Point: 19°   Wind: 14mph
Humidity: 46%   Direction: 290°WNW
Pressure: 29.77"   Gusts: 20mph
Location:  36.21°N, 106.32°W
Report Text: KLAM 231055Z AUTO 29012G17KT 10SM CLR 04/M07 A2977 RMK AO2 T00361070
Loading
Personal Weather Stations






























Interactive Weather Map New forecast layout! Learn more

10-Day Weather Forecast

Advertisements
Track Severe Weather on mobile